sensor_id;sensor_type;location;lat;lon;timestamp;P1;durP1;ratioP1;P2;durP2;ratioP2
75007;SDS011;63554;48.940;12.050;2022-12-04T00:02:34;3.63;;;2.45;;
75007;SDS011;63554;48.940;12.050;2022-12-04T00:06:36;4.88;;;4.47;;
75007;SDS011;63554;48.940;12.050;2022-12-04T00:10:40;2.20;;;2.00;;
75007;SDS011;63554;48.940;12.050;2022-12-04T00:14:46;2.65;;;2.42;;
75007;SDS011;63554;48.940;12.050;2022-12-04T00:19:09;3.65;;;3.35;;
75007;SDS011;63554;48.940;12.050;2022-12-04T00:23:11;5.53;;;5.13;;
75007;SDS011;63554;48.940;12.050;2022-12-04T00:27:14;1.77;;;1.67;;
75007;SDS011;63554;48.940;12.050;2022-12-04T00:31:20;4.45;;;3.45;;
75007;SDS011;63554;48.940;12.050;2022-12-04T00:35:25;3.33;;;2.13;;
75007;SDS011;63554;48.940;12.050;2022-12-04T00:39:27;3.17;;;2.65;;
75007;SDS011;63554;48.940;12.050;2022-12-04T00:43:30;4.00;;;3.13;;
75007;SDS011;63554;48.940;12.050;2022-12-04T00:47:34;1.70;;;1.58;;
75007;SDS011;63554;48.940;12.050;2022-12-04T00:51:37;3.15;;;2.83;;
75007;SDS011;63554;48.940;12.050;2022-12-04T00:55:40;4.30;;;2.33;;
75007;SDS011;63554;48.940;12.050;2022-12-04T00:59:44;4.50;;;1.92;;
75007;SDS011;63554;48.940;12.050;2022-12-04T01:03:48;2.90;;;2.38;;
75007;SDS011;63554;48.940;12.050;2022-12-04T01:07:52;3.88;;;3.58;;
75007;SDS011;63554;48.940;12.050;2022-12-04T01:11:55;2.53;;;2.33;;
75007;SDS011;63554;48.940;12.050;2022-12-04T01:15:57;2.15;;;1.95;;
75007;SDS011;63554;48.940;12.050;2022-12-04T01:20:02;3.30;;;3.10;;
75007;SDS011;63554;48.940;12.050;2022-12-04T01:24:06;1.95;;;1.73;;
75007;SDS011;63554;48.940;12.050;2022-12-04T01:28:09;2.00;;;1.85;;
75007;SDS011;63554;48.940;12.050;2022-12-04T01:32:12;3.95;;;2.10;;
75007;SDS011;63554;48.940;12.050;2022-12-04T01:36:17;3.78;;;3.30;;
75007;SDS011;63554;48.940;12.050;2022-12-04T01:40:22;5.88;;;3.60;;
75007;SDS011;63554;48.940;12.050;2022-12-04T01:44:25;5.18;;;3.10;;
75007;SDS011;63554;48.940;12.050;2022-12-04T01:48:28;4.10;;;3.80;;
75007;SDS011;63554;48.940;12.050;2022-12-04T01:52:34;2.95;;;2.75;;
75007;SDS011;63554;48.940;12.050;2022-12-04T01:56:38;4.32;;;3.97;;
75007;SDS011;63554;48.940;12.050;2022-12-04T02:00:45;4.93;;;2.83;;
75007;SDS011;63554;48.940;12.050;2022-12-04T02:04:58;3.00;;;1.92;;
75007;SDS011;63554;48.940;12.050;2022-12-04T02:09:03;3.67;;;3.35;;
75007;SDS011;63554;48.940;12.050;2022-12-04T02:13:06;2.42;;;1.92;;
75007;SDS011;63554;48.940;12.050;2022-12-04T02:17:17;3.30;;;3.08;;
75007;SDS011;63554;48.940;12.050;2022-12-04T02:21:25;1.35;;;1.23;;
75007;SDS011;63554;48.940;12.050;2022-12-04T02:25:37;3.67;;;3.38;;
75007;SDS011;63554;48.940;12.050;2022-12-04T02:29:47;4.25;;;2.40;;
75007;SDS011;63554;48.940;12.050;2022-12-04T02:33:58;3.58;;;3.42;;
75007;SDS011;63554;48.940;12.050;2022-12-04T02:38:09;5.38;;;3.25;;
75007;SDS011;63554;48.940;12.050;2022-12-04T02:42:15;2.70;;;2.53;;
75007;SDS011;63554;48.940;12.050;2022-12-04T02:46:25;1.40;;;1.30;;
75007;SDS011;63554;48.940;12.050;2022-12-04T02:50:32;1.73;;;1.63;;
75007;SDS011;63554;48.940;12.050;2022-12-04T02:54:38;2.05;;;1.98;;
75007;SDS011;63554;48.940;12.050;2022-12-04T02:58:45;3.28;;;3.15;;
75007;SDS011;63554;48.940;12.050;2022-12-04T03:02:54;4.18;;;3.97;;
75007;SDS011;63554;48.940;12.050;2022-12-04T03:07:01;2.95;;;2.75;;
75007;SDS011;63554;48.940;12.050;2022-12-04T03:11:08;2.25;;;1.95;;
75007;SDS011;63554;48.940;12.050;2022-12-04T03:15:11;3.33;;;3.20;;
75007;SDS011;63554;48.940;12.050;2022-12-04T03:19:20;1.10;;;1.02;;
75007;SDS011;63554;48.940;12.050;2022-12-04T03:23:27;4.85;;;4.03;;
75007;SDS011;63554;48.940;12.050;2022-12-04T03:27:36;1.63;;;1.52;;
75007;SDS011;63554;48.940;12.050;2022-12-04T03:31:48;2.53;;;2.33;;
75007;SDS011;63554;48.940;12.050;2022-12-04T03:35:57;4.03;;;1.88;;
75007;SDS011;63554;48.940;12.050;2022-12-04T03:40:04;2.38;;;2.28;;
75007;SDS011;63554;48.940;12.050;2022-12-04T03:44:13;3.50;;;1.48;;
75007;SDS011;63554;48.940;12.050;2022-12-04T03:48:21;4.15;;;3.85;;
75007;SDS011;63554;48.940;12.050;2022-12-04T03:52:33;1.83;;;1.67;;
75007;SDS011;63554;48.940;12.050;2022-12-04T03:56:41;3.28;;;3.08;;
75007;SDS011;63554;48.940;12.050;2022-12-04T04:00:48;3.13;;;3.00;;
75007;SDS011;63554;48.940;12.050;2022-12-04T04:04:54;2.85;;;1.55;;
75007;SDS011;63554;48.940;12.050;2022-12-04T04:09:02;1.42;;;1.42;;
75007;SDS011;63554;48.940;12.050;2022-12-04T04:13:10;4.70;;;4.10;;
75007;SDS011;63554;48.940;12.050;2022-12-04T04:17:38;4.10;;;3.65;;
75007;SDS011;63554;48.940;12.050;2022-12-04T04:22:05;4.07;;;3.78;;
75007;SDS011;63554;48.940;12.050;2022-12-04T04:26:31;1.15;;;1.15;;
75007;SDS011;63554;48.940;12.050;2022-12-04T04:30:37;6.22;;;3.08;;
75007;SDS011;63554;48.940;12.050;2022-12-04T04:34:42;2.75;;;1.92;;
75007;SDS011;63554;48.940;12.050;2022-12-04T04:38:52;1.50;;;1.42;;
75007;SDS011;63554;48.940;12.050;2022-12-04T04:43:04;3.80;;;3.50;;
75007;SDS011;63554;48.940;12.050;2022-12-04T04:47:13;2.38;;;2.15;;
75007;SDS011;63554;48.940;12.050;2022-12-04T04:51:26;1.80;;;1.70;;
75007;SDS011;63554;48.940;12.050;2022-12-04T04:55:32;2.90;;;2.70;;
75007;SDS011;63554;48.940;12.050;2022-12-04T04:59:37;2.78;;;2.67;;
75007;SDS011;63554;48.940;12.050;2022-12-04T05:03:40;2.15;;;2.03;;
75007;SDS011;63554;48.940;12.050;2022-12-04T05:07:43;2.53;;;2.38;;
75007;SDS011;63554;48.940;12.050;2022-12-04T05:11:46;5.03;;;2.95;;
75007;SDS011;63554;48.940;12.050;2022-12-04T05:15:55;3.40;;;2.22;;
75007;SDS011;63554;48.940;12.050;2022-12-04T05:19:59;3.70;;;3.25;;
75007;SDS011;63554;48.940;12.050;2022-12-04T05:24:01;3.25;;;3.05;;
75007;SDS011;63554;48.940;12.050;2022-12-04T05:28:04;3.97;;;3.67;;
75007;SDS011;63554;48.940;12.050;2022-12-04T05:32:08;3.25;;;3.05;;
75007;SDS011;63554;48.940;12.050;2022-12-04T05:36:11;2.78;;;2.03;;
75007;SDS011;63554;48.940;12.050;2022-12-04T05:40:14;3.17;;;2.97;;
75007;SDS011;63554;48.940;12.050;2022-12-04T05:44:17;2.40;;;2.25;;
75007;SDS011;63554;48.940;12.050;2022-12-04T05:48:21;1.52;;;1.42;;
75007;SDS011;63554;48.940;12.050;2022-12-04T05:52:24;1.88;;;1.77;;
75007;SDS011;63554;48.940;12.050;2022-12-04T05:56:26;3.35;;;2.17;;
75007;SDS011;63554;48.940;12.050;2022-12-04T06:00:30;3.55;;;3.35;;
75007;SDS011;63554;48.940;12.050;2022-12-04T06:04:39;3.15;;;2.95;;
75007;SDS011;63554;48.940;12.050;2022-12-04T06:08:42;3.47;;;3.28;;
75007;SDS011;63554;48.940;12.050;2022-12-04T06:12:44;3.22;;;3.03;;
75007;SDS011;63554;48.940;12.050;2022-12-04T06:16:47;1.40;;;1.30;;
75007;SDS011;63554;48.940;12.050;2022-12-04T06:20:51;3.67;;;3.40;;
75007;SDS011;63554;48.940;12.050;2022-12-04T06:24:54;2.55;;;2.35;;
75007;SDS011;63554;48.940;12.050;2022-12-04T06:28:57;2.83;;;2.70;;
75007;SDS011;63554;48.940;12.050;2022-12-04T06:33:01;6.00;;;4.07;;
75007;SDS011;63554;48.940;12.050;2022-12-04T06:37:05;3.55;;;3.35;;
75007;SDS011;63554;48.940;12.050;2022-12-04T06:41:10;5.78;;;1.90;;
75007;SDS011;63554;48.940;12.050;2022-12-04T06:45:14;1.10;;;1.10;;
75007;SDS011;63554;48.940;12.050;2022-12-04T06:49:17;2.97;;;2.78;;
75007;SDS011;63554;48.940;12.050;2022-12-04T06:53:24;3.13;;;1.55;;
75007;SDS011;63554;48.940;12.050;2022-12-04T06:57:27;3.40;;;2.03;;
75007;SDS011;63554;48.940;12.050;2022-12-04T07:01:31;2.40;;;2.25;;
75007;SDS011;63554;48.940;12.050;2022-12-04T07:05:35;2.80;;;2.35;;
75007;SDS011;63554;48.940;12.050;2022-12-04T07:09:39;7.75;;;3.42;;
75007;SDS011;63554;48.940;12.050;2022-12-04T07:13:41;2.25;;;1.83;;
75007;SDS011;63554;48.940;12.050;2022-12-04T07:17:44;2.35;;;1.80;;
75007;SDS011;63554;48.940;12.050;2022-12-04T07:21:47;3.15;;;2.95;;
75007;SDS011;63554;48.940;12.050;2022-12-04T07:25:51;7.00;;;3.30;;
75007;SDS011;63554;48.940;12.050;2022-12-04T07:29:54;2.20;;;2.05;;
75007;SDS011;63554;48.940;12.050;2022-12-04T07:33:57;2.10;;;2.00;;
75007;SDS011;63554;48.940;12.050;2022-12-04T07:38:00;1.45;;;0.82;;
75007;SDS011;63554;48.940;12.050;2022-12-04T07:42:04;2.47;;;2.28;;
75007;SDS011;63554;48.940;12.050;2022-12-04T07:46:08;2.13;;;1.60;;
75007;SDS011;63554;48.940;12.050;2022-12-04T07:50:14;2.70;;;2.50;;
75007;SDS011;63554;48.940;12.050;2022-12-04T07:54:17;3.35;;;2.58;;
75007;SDS011;63554;48.940;12.050;2022-12-04T07:58:21;4.90;;;4.40;;
75007;SDS011;63554;48.940;12.050;2022-12-04T08:02:24;1.55;;;1.45;;
75007;SDS011;63554;48.940;12.050;2022-12-04T08:06:28;3.40;;;3.20;;
75007;SDS011;63554;48.940;12.050;2022-12-04T08:10:31;4.22;;;3.92;;
75007;SDS011;63554;48.940;12.050;2022-12-04T08:14:35;3.17;;;2.97;;
75007;SDS011;63554;48.940;12.050;2022-12-04T08:18:38;3.00;;;2.72;;
75007;SDS011;63554;48.940;12.050;2022-12-04T08:22:41;3.65;;;2.95;;
75007;SDS011;63554;48.940;12.050;2022-12-04T08:26:44;2.63;;;2.53;;
75007;SDS011;63554;48.940;12.050;2022-12-04T08:30:48;2.00;;;1.48;;
75007;SDS011;63554;48.940;12.050;2022-12-04T08:34:51;0.30;;;0.30;;
75007;SDS011;63554;48.940;12.050;2022-12-04T08:38:56;0.90;;;0.90;;
75007;SDS011;63554;48.940;12.050;2022-12-04T08:42:59;0.52;;;0.50;;
75007;SDS011;63554;48.940;12.050;2022-12-04T08:47:03;2.85;;;2.70;;
75007;SDS011;63554;48.940;12.050;2022-12-04T08:51:06;3.70;;;3.38;;
75007;SDS011;63554;48.940;12.050;2022-12-04T08:55:13;3.58;;;3.35;;
75007;SDS011;63554;48.940;12.050;2022-12-04T08:59:16;2.47;;;2.28;;
75007;SDS011;63554;48.940;12.050;2022-12-04T09:03:20;2.17;;;2.08;;
75007;SDS011;63554;48.940;12.050;2022-12-04T09:07:31;4.20;;;3.55;;
75007;SDS011;63554;48.940;12.050;2022-12-04T09:11:34;3.00;;;2.80;;
75007;SDS011;63554;48.940;12.050;2022-12-04T09:15:37;3.40;;;3.13;;
75007;SDS011;63554;48.940;12.050;2022-12-04T09:19:42;2.50;;;2.38;;
75007;SDS011;63554;48.940;12.050;2022-12-04T09:23:45;2.88;;;2.67;;
75007;SDS011;63554;48.940;12.050;2022-12-04T09:27:48;2.50;;;2.20;;
75007;SDS011;63554;48.940;12.050;2022-12-04T09:31:50;4.35;;;3.20;;
75007;SDS011;63554;48.940;12.050;2022-12-04T09:35:55;2.72;;;2.22;;
75007;SDS011;63554;48.940;12.050;2022-12-04T09:40:00;2.47;;;2.35;;
75007;SDS011;63554;48.940;12.050;2022-12-04T09:44:03;4.00;;;3.70;;
75007;SDS011;63554;48.940;12.050;2022-12-04T09:52:17;3.10;;;2.53;;
75007;SDS011;63554;48.940;12.050;2022-12-04T09:56:31;4.78;;;2.22;;
75007;SDS011;63554;48.940;12.050;2022-12-04T10:00:34;2.28;;;1.73;;
75007;SDS011;63554;48.940;12.050;2022-12-04T10:04:40;1.58;;;1.48;;
75007;SDS011;63554;48.940;12.050;2022-12-04T10:08:53;3.63;;;1.92;;
75007;SDS011;63554;48.940;12.050;2022-12-04T10:13:14;3.38;;;2.33;;
75007;SDS011;63554;48.940;12.050;2022-12-04T10:17:40;5.13;;;2.58;;
75007;SDS011;63554;48.940;12.050;2022-12-04T10:21:55;2.92;;;2.28;;
75007;SDS011;63554;48.940;12.050;2022-12-04T10:26:10;5.18;;;2.90;;
75007;SDS011;63554;48.940;12.050;2022-12-04T10:30:18;4.47;;;1.77;;
75007;SDS011;63554;48.940;12.050;2022-12-04T10:34:24;3.88;;;2.17;;
75007;SDS011;63554;48.940;12.050;2022-12-04T10:38:31;1.98;;;1.73;;
75007;SDS011;63554;48.940;12.050;2022-12-04T10:42:42;3.33;;;1.80;;
75007;SDS011;63554;48.940;12.050;2022-12-04T10:46:53;4.97;;;2.97;;
75007;SDS011;63554;48.940;12.050;2022-12-04T10:50:59;3.50;;;2.60;;
75007;SDS011;63554;48.940;12.050;2022-12-04T10:55:02;3.75;;;1.58;;
75007;SDS011;63554;48.940;12.050;2022-12-04T10:59:13;3.13;;;2.15;;
75007;SDS011;63554;48.940;12.050;2022-12-04T11:03:21;5.03;;;3.10;;
75007;SDS011;63554;48.940;12.050;2022-12-04T11:07:27;4.22;;;3.10;;
75007;SDS011;63554;48.940;12.050;2022-12-04T11:11:32;8.88;;;6.88;;
75007;SDS011;63554;48.940;12.050;2022-12-04T11:15:42;2.38;;;2.17;;
75007;SDS011;63554;48.940;12.050;2022-12-04T11:19:46;5.57;;;2.70;;
75007;SDS011;63554;48.940;12.050;2022-12-04T11:23:49;2.85;;;2.58;;
75007;SDS011;63554;48.940;12.050;2022-12-04T11:27:54;3.28;;;2.50;;
75007;SDS011;63554;48.940;12.050;2022-12-04T11:32:02;1.25;;;1.15;;
75007;SDS011;63554;48.940;12.050;2022-12-04T11:36:15;1.30;;;1.20;;
75007;SDS011;63554;48.940;12.050;2022-12-04T11:40:22;1.75;;;1.25;;
75007;SDS011;63554;48.940;12.050;2022-12-04T11:44:27;1.65;;;1.55;;
75007;SDS011;63554;48.940;12.050;2022-12-04T11:48:42;1.23;;;1.00;;
75007;SDS011;63554;48.940;12.050;2022-12-04T11:52:51;2.53;;;1.38;;
75007;SDS011;63554;48.940;12.050;2022-12-04T11:57:05;2.20;;;1.02;;
75007;SDS011;63554;48.940;12.050;2022-12-04T12:01:19;0.73;;;0.73;;
75007;SDS011;63554;48.940;12.050;2022-12-04T12:05:40;1.27;;;1.15;;
75007;SDS011;63554;48.940;12.050;2022-12-04T12:09:52;2.97;;;1.77;;
75007;SDS011;63554;48.940;12.050;2022-12-04T12:14:05;6.70;;;2.95;;
75007;SDS011;63554;48.940;12.050;2022-12-04T12:18:20;4.50;;;3.22;;
75007;SDS011;63554;48.940;12.050;2022-12-04T12:22:42;5.35;;;2.05;;
75007;SDS011;63554;48.940;12.050;2022-12-04T12:27:02;5.95;;;3.40;;
75007;SDS011;63554;48.940;12.050;2022-12-04T12:31:18;3.65;;;2.90;;
75007;SDS011;63554;48.940;12.050;2022-12-04T12:35:35;10.95;;;5.82;;
75007;SDS011;63554;48.940;12.050;2022-12-04T12:39:44;4.70;;;3.25;;
75007;SDS011;63554;48.940;12.050;2022-12-04T12:43:52;4.32;;;2.60;;
75007;SDS011;63554;48.940;12.050;2022-12-04T12:48:03;4.45;;;2.75;;
75007;SDS011;63554;48.940;12.050;2022-12-04T12:52:12;3.40;;;2.55;;
75007;SDS011;63554;48.940;12.050;2022-12-04T12:56:24;4.65;;;3.30;;
75007;SDS011;63554;48.940;12.050;2022-12-04T13:00:35;5.10;;;3.03;;
75007;SDS011;63554;48.940;12.050;2022-12-04T13:04:40;6.72;;;2.90;;
75007;SDS011;63554;48.940;12.050;2022-12-04T13:08:47;4.78;;;2.92;;
75007;SDS011;63554;48.940;12.050;2022-12-04T13:13:03;3.88;;;2.67;;
75007;SDS011;63554;48.940;12.050;2022-12-04T13:17:10;3.85;;;2.55;;
75007;SDS011;63554;48.940;12.050;2022-12-04T13:21:23;5.43;;;2.75;;
75007;SDS011;63554;48.940;12.050;2022-12-04T13:25:37;4.13;;;2.58;;
75007;SDS011;63554;48.940;12.050;2022-12-04T13:29:53;5.20;;;3.00;;
75007;SDS011;63554;48.940;12.050;2022-12-04T13:34:17;5.45;;;3.15;;
75007;SDS011;63554;48.940;12.050;2022-12-04T13:38:41;8.75;;;4.03;;
75007;SDS011;63554;48.940;12.050;2022-12-04T13:47:39;6.60;;;3.85;;
75007;SDS011;63554;48.940;12.050;2022-12-04T13:51:42;5.18;;;3.35;;
75007;SDS011;63554;48.940;12.050;2022-12-04T13:55:53;8.90;;;4.43;;
75007;SDS011;63554;48.940;12.050;2022-12-04T14:00:00;8.25;;;3.90;;
75007;SDS011;63554;48.940;12.050;2022-12-04T14:04:19;6.78;;;4.07;;
75007;SDS011;63554;48.940;12.050;2022-12-04T14:08:25;5.40;;;3.10;;
75007;SDS011;63554;48.940;12.050;2022-12-04T14:12:32;8.05;;;3.60;;
75007;SDS011;63554;48.940;12.050;2022-12-04T14:16:38;6.35;;;4.15;;
75007;SDS011;63554;48.940;12.050;2022-12-04T14:20:43;5.63;;;3.35;;
75007;SDS011;63554;48.940;12.050;2022-12-04T14:24:46;3.88;;;2.70;;
75007;SDS011;63554;48.940;12.050;2022-12-04T14:28:50;8.18;;;4.10;;
75007;SDS011;63554;48.940;12.050;2022-12-04T14:32:55;4.45;;;3.67;;
75007;SDS011;63554;48.940;12.050;2022-12-04T14:37:10;6.80;;;3.67;;
75007;SDS011;63554;48.940;12.050;2022-12-04T14:41:24;6.55;;;3.65;;
75007;SDS011;63554;48.940;12.050;2022-12-04T14:49:38;3.75;;;2.53;;
75007;SDS011;63554;48.940;12.050;2022-12-04T14:53:52;6.63;;;4.13;;
75007;SDS011;63554;48.940;12.050;2022-12-04T14:58:08;5.90;;;4.05;;
75007;SDS011;63554;48.940;12.050;2022-12-04T15:02:33;7.50;;;6.43;;
75007;SDS011;63554;48.940;12.050;2022-12-04T15:06:39;6.07;;;4.90;;
75007;SDS011;63554;48.940;12.050;2022-12-04T15:10:48;10.10;;;4.32;;
75007;SDS011;63554;48.940;12.050;2022-12-04T15:15:17;4.55;;;3.30;;
75007;SDS011;63554;48.940;12.050;2022-12-04T15:19:25;5.50;;;3.63;;
75007;SDS011;63554;48.940;12.050;2022-12-04T15:23:28;5.65;;;3.20;;
75007;SDS011;63554;48.940;12.050;2022-12-04T15:27:37;7.53;;;4.25;;
75007;SDS011;63554;48.940;12.050;2022-12-04T15:31:40;5.45;;;4.30;;
75007;SDS011;63554;48.940;12.050;2022-12-04T15:35:49;10.30;;;4.80;;
75007;SDS011;63554;48.940;12.050;2022-12-04T15:39:59;7.57;;;4.00;;
75007;SDS011;63554;48.940;12.050;2022-12-04T15:44:21;9.57;;;4.60;;
75007;SDS011;63554;48.940;12.050;2022-12-04T15:48:26;4.35;;;3.78;;
75007;SDS011;63554;48.940;12.050;2022-12-04T15:52:30;4.22;;;3.40;;
75007;SDS011;63554;48.940;12.050;2022-12-04T15:56:33;5.10;;;3.45;;
75007;SDS011;63554;48.940;12.050;2022-12-04T16:00:38;3.97;;;3.13;;
75007;SDS011;63554;48.940;12.050;2022-12-04T16:08:46;5.20;;;4.75;;
75007;SDS011;63554;48.940;12.050;2022-12-04T16:12:51;6.60;;;3.75;;
75007;SDS011;63554;48.940;12.050;2022-12-04T16:16:57;6.47;;;4.13;;
75007;SDS011;63554;48.940;12.050;2022-12-04T16:21:07;14.43;;;3.70;;
75007;SDS011;63554;48.940;12.050;2022-12-04T16:25:15;6.95;;;4.32;;
75007;SDS011;63554;48.940;12.050;2022-12-04T16:29:19;1.15;;;1.05;;
75007;SDS011;63554;48.940;12.050;2022-12-04T16:33:23;1.25;;;1.15;;
75007;SDS011;63554;48.940;12.050;2022-12-04T16:37:26;1.42;;;1.33;;
75007;SDS011;63554;48.940;12.050;2022-12-04T16:41:30;2.53;;;2.42;;
75007;SDS011;63554;48.940;12.050;2022-12-04T16:45:33;1.40;;;1.30;;
75007;SDS011;63554;48.940;12.050;2022-12-04T16:49:38;1.58;;;1.48;;
75007;SDS011;63554;48.940;12.050;2022-12-04T16:53:41;3.45;;;2.90;;
75007;SDS011;63554;48.940;12.050;2022-12-04T16:57:44;2.20;;;2.10;;
75007;SDS011;63554;48.940;12.050;2022-12-04T17:01:47;5.10;;;1.75;;
75007;SDS011;63554;48.940;12.050;2022-12-04T17:05:52;3.70;;;2.17;;
75007;SDS011;63554;48.940;12.050;2022-12-04T17:09:56;1.80;;;1.08;;
75007;SDS011;63554;48.940;12.050;2022-12-04T17:13:58;3.00;;;2.38;;
75007;SDS011;63554;48.940;12.050;2022-12-04T17:18:03;3.20;;;2.20;;
75007;SDS011;63554;48.940;12.050;2022-12-04T17:22:14;1.70;;;1.60;;
75007;SDS011;63554;48.940;12.050;2022-12-04T17:26:21;1.50;;;1.50;;
75007;SDS011;63554;48.940;12.050;2022-12-04T17:30:24;1.52;;;1.45;;
75007;SDS011;63554;48.940;12.050;2022-12-04T17:34:34;1.80;;;1.70;;
75007;SDS011;63554;48.940;12.050;2022-12-04T17:38:38;2.13;;;1.85;;
75007;SDS011;63554;48.940;12.050;2022-12-04T17:42:42;2.08;;;1.98;;
75007;SDS011;63554;48.940;12.050;2022-12-04T17:46:45;3.15;;;1.13;;
75007;SDS011;63554;48.940;12.050;2022-12-04T17:50:48;3.03;;;2.58;;
75007;SDS011;63554;48.940;12.050;2022-12-04T17:54:52;2.28;;;1.38;;
75007;SDS011;63554;48.940;12.050;2022-12-04T17:58:55;2.38;;;2.22;;
75007;SDS011;63554;48.940;12.050;2022-12-04T18:02:58;1.88;;;1.77;;
75007;SDS011;63554;48.940;12.050;2022-12-04T18:07:01;3.38;;;1.83;;
75007;SDS011;63554;48.940;12.050;2022-12-04T18:11:05;2.10;;;1.75;;
75007;SDS011;63554;48.940;12.050;2022-12-04T18:15:08;6.10;;;3.22;;
75007;SDS011;63554;48.940;12.050;2022-12-04T18:19:11;2.22;;;2.08;;
75007;SDS011;63554;48.940;12.050;2022-12-04T18:23:15;2.00;;;1.25;;
75007;SDS011;63554;48.940;12.050;2022-12-04T18:27:19;3.75;;;2.05;;
75007;SDS011;63554;48.940;12.050;2022-12-04T18:31:22;6.28;;;1.95;;
75007;SDS011;63554;48.940;12.050;2022-12-04T18:35:25;3.47;;;2.20;;
75007;SDS011;63554;48.940;12.050;2022-12-04T18:39:28;2.50;;;1.77;;
75007;SDS011;63554;48.940;12.050;2022-12-04T18:43:33;2.90;;;2.70;;
75007;SDS011;63554;48.940;12.050;2022-12-04T18:47:36;1.90;;;1.80;;
75007;SDS011;63554;48.940;12.050;2022-12-04T18:51:39;6.00;;;2.55;;
75007;SDS011;63554;48.940;12.050;2022-12-04T18:55:49;3.80;;;2.78;;
75007;SDS011;63554;48.940;12.050;2022-12-04T18:59:54;1.92;;;1.80;;
75007;SDS011;63554;48.940;12.050;2022-12-04T19:03:57;2.83;;;2.60;;
75007;SDS011;63554;48.940;12.050;2022-12-04T19:08:02;2.28;;;2.17;;
75007;SDS011;63554;48.940;12.050;2022-12-04T19:12:05;3.25;;;2.10;;
75007;SDS011;63554;48.940;12.050;2022-12-04T19:16:10;1.77;;;1.67;;
75007;SDS011;63554;48.940;12.050;2022-12-04T19:20:14;2.90;;;2.70;;
75007;SDS011;63554;48.940;12.050;2022-12-04T19:24:18;3.33;;;2.92;;
75007;SDS011;63554;48.940;12.050;2022-12-04T19:28:21;5.82;;;5.32;;
75007;SDS011;63554;48.940;12.050;2022-12-04T19:32:25;3.83;;;3.47;;
75007;SDS011;63554;48.940;12.050;2022-12-04T19:36:28;4.43;;;2.28;;
75007;SDS011;63554;48.940;12.050;2022-12-04T19:40:32;2.58;;;1.95;;
75007;SDS011;63554;48.940;12.050;2022-12-04T19:44:34;6.88;;;6.22;;
75007;SDS011;63554;48.940;12.050;2022-12-04T19:48:51;7.53;;;5.68;;
75007;SDS011;63554;48.940;12.050;2022-12-04T19:52:57;10.45;;;5.47;;
75007;SDS011;63554;48.940;12.050;2022-12-04T19:56:59;8.40;;;7.35;;
75007;SDS011;63554;48.940;12.050;2022-12-04T20:01:02;8.60;;;6.57;;
75007;SDS011;63554;48.940;12.050;2022-12-04T20:05:08;10.00;;;6.07;;
75007;SDS011;63554;48.940;12.050;2022-12-04T20:09:13;14.82;;;7.18;;
75007;SDS011;63554;48.940;12.050;2022-12-04T20:13:19;9.50;;;5.75;;
75007;SDS011;63554;48.940;12.050;2022-12-04T20:17:22;5.50;;;4.55;;
75007;SDS011;63554;48.940;12.050;2022-12-04T20:21:26;5.70;;;3.92;;
75007;SDS011;63554;48.940;12.050;2022-12-04T20:25:30;13.60;;;7.25;;
75007;SDS011;63554;48.940;12.050;2022-12-04T20:29:36;8.93;;;8.13;;
75007;SDS011;63554;48.940;12.050;2022-12-04T20:33:39;9.48;;;6.20;;
75007;SDS011;63554;48.940;12.050;2022-12-04T20:37:43;12.98;;;7.90;;
75007;SDS011;63554;48.940;12.050;2022-12-04T20:41:46;9.93;;;5.63;;
75007;SDS011;63554;48.940;12.050;2022-12-04T20:45:49;9.10;;;7.47;;
75007;SDS011;63554;48.940;12.050;2022-12-04T20:49:52;10.07;;;7.93;;
75007;SDS011;63554;48.940;12.050;2022-12-04T20:53:57;11.75;;;6.45;;
75007;SDS011;63554;48.940;12.050;2022-12-04T20:58:01;8.73;;;6.75;;
75007;SDS011;63554;48.940;12.050;2022-12-04T21:02:04;11.02;;;6.53;;
75007;SDS011;63554;48.940;12.050;2022-12-04T21:06:09;7.70;;;6.25;;
75007;SDS011;63554;48.940;12.050;2022-12-04T21:10:15;8.07;;;6.40;;
75007;SDS011;63554;48.940;12.050;2022-12-04T21:14:19;10.32;;;5.68;;
75007;SDS011;63554;48.940;12.050;2022-12-04T21:18:40;7.97;;;6.43;;
75007;SDS011;63554;48.940;12.050;2022-12-04T21:22:42;6.57;;;5.47;;
75007;SDS011;63554;48.940;12.050;2022-12-04T21:26:47;6.72;;;4.85;;
75007;SDS011;63554;48.940;12.050;2022-12-04T21:30:49;9.93;;;5.97;;
75007;SDS011;63554;48.940;12.050;2022-12-04T21:34:52;8.30;;;6.50;;
75007;SDS011;63554;48.940;12.050;2022-12-04T21:38:55;7.20;;;6.25;;
75007;SDS011;63554;48.940;12.050;2022-12-04T21:43:00;7.25;;;5.75;;
75007;SDS011;63554;48.940;12.050;2022-12-04T21:47:03;6.82;;;5.40;;
75007;SDS011;63554;48.940;12.050;2022-12-04T21:51:06;13.30;;;7.13;;
75007;SDS011;63554;48.940;12.050;2022-12-04T21:55:29;6.80;;;4.57;;
75007;SDS011;63554;48.940;12.050;2022-12-04T21:59:33;7.63;;;6.85;;
75007;SDS011;63554;48.940;12.050;2022-12-04T22:03:36;11.10;;;7.05;;
75007;SDS011;63554;48.940;12.050;2022-12-04T22:07:38;9.25;;;5.85;;
75007;SDS011;63554;48.940;12.050;2022-12-04T22:11:41;14.60;;;8.27;;
75007;SDS011;63554;48.940;12.050;2022-12-04T22:15:46;9.90;;;6.25;;
75007;SDS011;63554;48.940;12.050;2022-12-04T22:19:49;9.48;;;5.45;;
75007;SDS011;63554;48.940;12.050;2022-12-04T22:23:53;11.93;;;9.18;;
75007;SDS011;63554;48.940;12.050;2022-12-04T22:27:57;15.27;;;8.02;;
75007;SDS011;63554;48.940;12.050;2022-12-04T22:32:01;8.98;;;6.70;;
75007;SDS011;63554;48.940;12.050;2022-12-04T22:36:05;12.55;;;8.68;;
75007;SDS011;63554;48.940;12.050;2022-12-04T22:40:10;11.35;;;7.05;;
75007;SDS011;63554;48.940;12.050;2022-12-04T22:44:13;14.40;;;8.18;;
75007;SDS011;63554;48.940;12.050;2022-12-04T22:48:17;13.27;;;8.88;;
75007;SDS011;63554;48.940;12.050;2022-12-04T22:52:20;14.52;;;5.70;;
75007;SDS011;63554;48.940;12.050;2022-12-04T22:56:23;12.45;;;7.30;;
75007;SDS011;63554;48.940;12.050;2022-12-04T23:00:27;16.52;;;6.55;;
75007;SDS011;63554;48.940;12.050;2022-12-04T23:04:31;12.18;;;6.57;;
75007;SDS011;63554;48.940;12.050;2022-12-04T23:08:34;14.15;;;6.97;;
75007;SDS011;63554;48.940;12.050;2022-12-04T23:12:37;9.88;;;6.75;;
75007;SDS011;63554;48.940;12.050;2022-12-04T23:16:40;10.05;;;6.63;;
75007;SDS011;63554;48.940;12.050;2022-12-04T23:20:45;13.32;;;5.25;;
75007;SDS011;63554;48.940;12.050;2022-12-04T23:24:48;12.32;;;6.25;;
75007;SDS011;63554;48.940;12.050;2022-12-04T23:28:50;12.57;;;5.88;;
75007;SDS011;63554;48.940;12.050;2022-12-04T23:32:53;8.23;;;6.20;;
75007;SDS011;63554;48.940;12.050;2022-12-04T23:36:57;8.50;;;6.05;;
75007;SDS011;63554;48.940;12.050;2022-12-04T23:41:00;9.63;;;7.40;;
75007;SDS011;63554;48.940;12.050;2022-12-04T23:45:03;5.88;;;3.28;;
75007;SDS011;63554;48.940;12.050;2022-12-04T23:49:07;10.55;;;5.05;;
75007;SDS011;63554;48.940;12.050;2022-12-04T23:53:12;7.05;;;4.28;;
75007;SDS011;63554;48.940;12.050;2022-12-04T23:57:14;6.38;;;5.07;;
